Time;durP1;ratioP1;P1;durP2;ratioP2;P2;SDS_P1;SDS_P2;PMS_P1;PMS_P2;Temp;Humidity;BMP_temperature;BMP_pressure;BME280_temperature;BME280_humidity;BME280_pressure;Samples;Min_cycle;Max_cycle;Signal;HPM_P1;HPM_P2
2023/03/23 00:01:10;;;;;;;1999.90;999.90;;;;;;;10.01;100.00;94860.34;5086452;28;20175;-59
2023/03/23 00:03:35;;;;;;;1999.90;999.90;;;;;;;9.99;100.00;94872.84;5087071;28;20174;-59
2023/03/23 00:06:10;;;;;;;1999.90;999.90;;;;;;;9.96;100.00;94865.50;5086881;28;20195;-59
2023/03/23 00:08:44;;;;;;;1999.90;999.90;;;;;;;9.93;100.00;94869.81;5087049;28;20177;-59
2023/03/23 00:11:16;;;;;;;1999.90;999.90;;;;;;;9.92;100.00;94862.81;5086230;28;20209;-59
2023/03/23 00:13:43;;;;;;;1999.90;999.90;;;;;;;9.89;100.00;94869.09;5086607;28;20170;-58
2023/03/23 00:16:18;;;;;;;1999.90;999.90;;;;;;;9.87;100.00;94863.28;5086919;28;20172;-59
2023/03/23 00:18:52;;;;;;;1999.90;999.90;;;;;;;9.84;100.00;94864.09;5086986;28;20176;-59
2023/03/23 00:21:18;;;;;;;1999.90;999.90;;;;;;;9.84;100.00;94866.81;5086409;28;20184;-58
2023/03/23 00:23:44;;;;;;;1999.90;999.90;;;;;;;9.84;100.00;94861.38;5085927;28;20196;-58
2023/03/23 00:26:11;;;;;;;1999.90;999.90;;;;;;;9.83;100.00;94865.28;5086463;28;20169;-58
2023/03/23 00:28:38;;;;;;;1999.90;999.90;;;;;;;9.81;100.00;94859.47;5086380;28;20514;-59
2023/03/23 00:31:06;;;;;;;1999.90;999.90;;;;;;;9.80;100.00;94860.66;5085899;28;20201;-58
2023/03/23 00:33:37;;;;;;;1999.90;999.90;;;;;;;9.81;100.00;94864.16;5086547;28;20180;-58
2023/03/23 00:36:04;;;;;;;1999.90;999.90;;;;;;;9.83;100.00;94854.38;5085825;28;20168;-59
2023/03/23 00:38:30;;;;;;;1999.90;999.90;;;;;;;9.80;100.00;94860.66;5085673;28;20170;-59
2023/03/23 00:40:57;;;;;;;1999.90;999.90;;;;;;;9.82;100.00;94858.28;5085675;28;20177;-58
2023/03/23 00:43:24;;;;;;;1999.90;999.90;;;;;;;9.85;100.00;94853.97;5086197;28;20173;-58
2023/03/23 00:45:52;;;;;;;1999.90;999.90;;;;;;;9.87;100.00;94848.84;5085660;28;20175;-58
2023/03/23 00:48:24;;;;;;;1999.90;999.90;;;;;;;9.87;100.00;94855.09;5086312;28;20177;-58
2023/03/23 00:50:51;;;;;;;1999.90;999.90;;;;;;;9.88;100.00;94850.44;5085508;28;20231;-58
2023/03/23 00:53:17;;;;;;;1999.90;999.90;;;;;;;9.84;100.00;94850.47;5085336;28;20173;-58
2023/03/23 00:55:44;;;;;;;1999.90;999.90;;;;;;;9.86;100.00;94852.78;5086040;28;20171;-58
2023/03/23 00:58:10;;;;;;;1999.90;999.90;;;;;;;9.85;100.00;94851.25;5085363;28;20177;-59
2023/03/23 01:00:36;;;;;;;1999.90;999.90;;;;;;;9.83;100.00;94850.88;5085369;28;20238;-58
2023/03/23 01:03:02;;;;;;;1999.90;999.90;;;;;;;9.83;100.00;94854.38;5085739;28;20173;-58
2023/03/23 01:05:31;;;;;;;1999.90;999.90;;;;;;;9.83;100.00;94843.47;5085763;28;20190;-59
2023/03/23 01:07:57;;;;;;;1999.90;999.90;;;;;;;9.82;100.00;94846.59;5085186;28;20169;-58
2023/03/23 01:10:24;;;;;;;1999.90;999.90;;;;;;;9.82;100.00;94844.66;5085427;28;20297;-59
2023/03/23 01:12:50;;;;;;;1999.90;999.90;;;;;;;9.81;100.00;94842.34;5085454;28;20193;-58
2023/03/23 01:15:17;;;;;;;1999.90;999.90;;;;;;;9.78;100.00;94840.44;5084975;28;20191;-58
2023/03/23 01:17:44;;;;;;;1999.90;999.90;;;;;;;9.75;100.00;94842.03;5085217;28;20174;-58
2023/03/23 01:20:12;;;;;;;1999.90;999.90;;;;;;;9.75;100.00;94833.84;5084977;28;20174;-59
2023/03/23 01:22:38;;;;;;;1999.90;999.90;;;;;;;9.78;100.00;94841.22;5084021;28;20249;-58
2023/03/23 01:25:04;;;;;;;1999.90;999.90;;;;;;;9.80;100.00;94838.84;5084730;28;20175;-59
2023/03/23 01:27:29;;;;;;;1999.90;999.90;;;;;;;9.83;100.00;94839.97;5084586;28;20243;-58
2023/03/23 01:29:55;;;;;;;1999.90;999.90;;;;;;;9.80;100.00;94827.94;5085533;28;20226;-58
2023/03/23 01:32:20;;;;;;;1999.90;999.90;;;;;;;9.77;100.00;94828.00;5084937;28;20219;-58
2023/03/23 01:34:46;;;;;;;1999.90;999.90;;;;;;;9.74;100.00;94824.13;5085138;28;20206;-59
2023/03/23 01:37:11;;;;;;;1999.90;999.90;;;;;;;9.76;100.00;94824.47;5085076;28;20241;-59
2023/03/23 01:39:37;;;;;;;1999.90;999.90;;;;;;;9.76;100.00;94820.97;5085040;28;20188;-59
2023/03/23 01:42:03;;;;;;;1999.90;999.90;;;;;;;9.75;100.00;94828.41;5084965;28;20181;-58
2023/03/23 01:44:31;;;;;;;1999.90;999.90;;;;;;;9.74;100.00;94826.88;5084439;28;20174;-59
2023/03/23 01:46:57;;;;;;;1999.90;999.90;;;;;;;9.74;100.00;94834.25;5084363;28;20178;-59
2023/03/23 01:49:31;;;;;;;1999.90;999.90;;;;;;;9.73;100.00;94828.03;5084852;28;20180;-58
2023/03/23 01:52:01;;;;;;;1999.90;999.90;;;;;;;9.70;100.00;94823.38;5084830;28;20205;-58
2023/03/23 01:54:28;;;;;;;1999.90;999.90;;;;;;;9.66;100.00;94828.13;5084152;28;20190;-59
2023/03/23 01:56:53;;;;;;;1999.90;999.90;;;;;;;9.63;100.00;94823.50;5084232;28;20247;-58
2023/03/23 01:59:20;;;;;;;1999.90;999.90;;;;;;;9.64;100.00;94825.06;5084799;28;20221;-58
2023/03/23 02:01:46;;;;;;;1999.90;999.90;;;;;;;9.64;100.00;94830.50;5084611;28;20183;-58
2023/03/23 02:04:14;;;;;;;1999.90;999.90;;;;;;;9.65;100.00;94837.50;5084204;28;20253;-59
2023/03/23 02:06:40;;;;;;;1999.90;999.90;;;;;;;9.62;100.00;94830.13;5084031;28;20177;-58
2023/03/23 02:09:06;;;;;;;1999.90;999.90;;;;;;;9.62;100.00;94830.13;5083991;28;20186;-59
2023/03/23 02:11:31;;;;;;;1999.90;999.90;;;;;;;9.61;100.00;94825.88;5083935;28;20215;-59
2023/03/23 02:13:57;;;;;;;1999.90;999.90;;;;;;;9.57;100.00;94819.69;5084026;28;20245;-58
2023/03/23 02:16:57;;;;;;;1999.90;999.90;;;;;;;9.56;100.00;94817.38;5083923;28;20177;-58
2023/03/23 02:19:53;;;;;;;1999.90;999.90;;;;;;;9.57;100.00;94811.53;5083942;28;20184;-58
2023/03/23 02:22:37;;;;;;;1999.90;999.90;;;;;;;9.57;100.00;94824.38;5084509;28;20182;-58
2023/03/23 02:25:44;;;;;;;1999.90;999.90;;;;;;;9.60;100.00;94821.59;5083811;28;20186;-58
2023/03/23 02:28:26;;;;;;;1999.90;999.90;;;;;;;9.57;100.00;94810.72;5083994;28;20246;-58
2023/03/23 02:31:19;;;;;;;1999.90;999.90;;;;;;;9.49;100.00;94815.53;5084308;28;20211;-58
2023/03/23 02:34:07;;;;;;;1999.90;999.90;;;;;;;9.44;100.00;94815.22;5083822;28;20189;-59
2023/03/23 02:36:38;;;;;;;1999.90;999.90;;;;;;;9.44;100.00;94810.53;5083665;28;20174;-58
2023/03/23 02:39:21;;;;;;;1999.90;999.90;;;;;;;9.41;100.00;94814.09;5084147;28;20170;-58
2023/03/23 02:41:54;;;;;;;1999.90;999.90;;;;;;;9.41;100.00;94811.34;5084561;28;20178;-59
2023/03/23 02:44:22;;;;;;;1999.90;999.90;;;;;;;9.41;100.00;94811.34;5084218;28;20184;-59
2023/03/23 02:46:49;;;;;;;1999.90;999.90;;;;;;;9.39;100.00;94813.72;5083548;28;20175;-59
2023/03/23 02:49:17;;;;;;;1999.90;999.90;;;;;;;9.35;100.00;94802.09;5083555;28;20175;-58
2023/03/23 02:51:46;;;;;;;1999.90;999.90;;;;;;;9.32;100.00;94802.91;5083626;28;20208;-59
2023/03/23 02:54:14;;;;;;;1999.90;999.90;;;;;;;9.37;100.00;94804.41;5083615;28;20203;-59
2023/03/23 02:56:43;;;;;;;1999.90;999.90;;;;;;;9.38;100.00;94801.28;5083622;28;20200;-59
2023/03/23 02:59:09;;;;;;;1999.90;999.90;;;;;;;9.39;100.00;94812.94;5083433;28;20174;-60
2023/03/23 03:01:36;;;;;;;1999.90;999.90;;;;;;;9.39;100.00;94802.81;5083411;28;20171;-59
2023/03/23 03:04:06;;;;;;;1999.90;999.90;;;;;;;9.39;100.00;94808.25;5083668;28;20300;-58
2023/03/23 03:06:50;;;;;;;1999.90;999.90;;;;;;;9.38;100.00;94809.44;5083162;28;20177;-58
2023/03/23 03:09:23;;;;;;;1999.90;999.90;;;;;;;9.35;100.00;94807.53;5083854;28;20170;-59
2023/03/23 03:11:51;;;;;;;1999.90;999.90;;;;;;;9.33;100.00;94809.88;5083832;28;20280;-58
2023/03/23 03:14:26;;;;;;;1999.90;999.90;;;;;;;9.30;100.00;94801.78;5083720;28;20251;-59
2023/03/23 03:17:03;;;;;;;1999.90;999.90;;;;;;;9.24;100.00;94806.13;5083874;28;20175;-59
2023/03/23 03:19:35;;;;;;;1999.90;999.90;;;;;;;9.22;100.00;94806.53;5083796;28;20180;-59
2023/03/23 03:22:01;;;;;;;1999.90;999.90;;;;;;;9.23;100.00;94805.38;5083883;28;20265;-59
2023/03/23 03:24:29;;;;;;;1999.90;999.90;;;;;;;9.22;100.00;94797.59;5083745;28;20170;-60
2023/03/23 03:26:58;;;;;;;1999.90;999.90;;;;;;;9.22;100.00;94798.34;5083305;28;20239;-59
2023/03/23 03:29:29;;;;;;;1999.90;999.90;;;;;;;9.18;100.00;94797.63;5083283;28;20228;-58
2023/03/23 03:31:58;;;;;;;1999.90;999.90;;;;;;;9.16;100.00;94801.94;5083696;28;20225;-58
2023/03/23 03:34:24;;;;;;;1999.90;999.90;;;;;;;9.09;100.00;94800.09;5083780;28;20181;-58
2023/03/23 03:36:52;;;;;;;1999.90;999.90;;;;;;;9.02;100.00;94797.44;5083198;28;20181;-59
2023/03/23 03:39:20;;;;;;;1999.90;999.90;;;;;;;9.00;100.00;94802.53;5083632;28;20180;-58
2023/03/23 03:41:46;;;;;;;1999.90;999.90;;;;;;;9.00;100.00;94807.22;5083618;28;20183;-59
2023/03/23 03:44:12;;;;;;;1999.90;999.90;;;;;;;9.02;100.00;94797.44;5083109;28;20182;-59
2023/03/23 03:46:37;;;;;;;1999.90;999.90;;;;;;;9.03;100.00;94807.16;5084405;28;20173;-58
2023/03/23 03:49:06;;;;;;;1999.90;999.90;;;;;;;9.03;100.00;94809.13;5086907;28;20174;-58
2023/03/23 03:51:32;;;;;;;1999.90;999.90;;;;;;;9.04;100.00;94807.94;5087058;28;20213;-59
2023/03/23 03:53:58;;;;;;;1999.90;999.90;;;;;;;9.03;100.00;94815.31;5086848;28;20269;-58
2023/03/23 03:56:24;;;;;;;1999.90;999.90;;;;;;;9.00;100.00;94818.09;5086530;28;20203;-58
2023/03/23 03:58:50;;;;;;;1999.90;999.90;;;;;;;8.96;100.00;94815.41;5086915;28;20181;-59
2023/03/23 04:01:23;;;;;;;1999.90;999.90;;;;;;;8.96;100.00;94815.41;5087120;28;20177;-58
2023/03/23 04:03:50;;;;;;;1999.90;999.90;;;;;;;8.93;100.00;94816.22;5086873;28;20169;-59
2023/03/23 04:06:16;;;;;;;1999.90;999.90;;;;;;;8.92;100.00;94822.84;5086835;28;20174;-59
2023/03/23 04:08:42;;;;;;;1999.90;999.90;;;;;;;8.93;100.00;94821.66;5086333;28;20204;-59
2023/03/23 04:11:09;;;;;;;1999.90;999.90;;;;;;;8.94;100.00;94825.16;5085881;28;20225;-59
2023/03/23 04:13:34;;;;;;;1999.90;999.90;;;;;;;8.95;100.00;94821.25;5086432;28;20173;-58
2023/03/23 04:16:00;;;;;;;1999.90;999.90;;;;;;;8.94;100.00;94814.28;5086657;28;20244;-59
2023/03/23 04:18:26;;;;;;;1999.90;999.90;;;;;;;8.89;100.00;94807.31;5086141;28;20245;-59
2023/03/23 04:20:51;;;;;;;1999.90;999.90;;;;;;;8.86;100.00;94819.00;5086104;28;20179;-59
2023/03/23 04:23:19;;;;;;;1999.90;999.90;;;;;;;8.88;100.00;94826.78;5086006;28;20208;-58
2023/03/23 04:25:51;;;;;;;1999.90;999.90;;;;;;;8.90;100.00;94830.66;5086542;28;20299;-59
2023/03/23 04:28:18;;;;;;;1999.90;999.90;;;;;;;8.89;100.00;94831.81;5086285;28;20253;-58
2023/03/23 04:30:44;;;;;;;1999.90;999.90;;;;;;;8.88;100.00;94833.00;5085807;28;20267;-58
2023/03/23 04:33:14;;;;;;;1999.90;999.90;;;;;;;8.88;100.00;94832.22;5085877;28;20208;-59
2023/03/23 04:35:45;;;;;;;1999.90;999.90;;;;;;;8.87;100.00;94836.91;5085745;28;20173;-58
2023/03/23 04:38:11;;;;;;;1999.90;999.90;;;;;;;8.86;100.00;94842.75;5085736;28;20224;-60
2023/03/23 04:40:37;;;;;;;1999.90;999.90;;;;;;;8.87;100.00;94836.91;5085684;28;20181;-58
2023/03/23 04:43:05;;;;;;;1999.90;999.90;;;;;;;8.89;100.00;94839.22;5086163;28;20219;-60
2023/03/23 04:45:31;;;;;;;1999.90;999.90;;;;;;;8.92;100.00;94832.94;5085688;28;20244;-58
2023/03/23 04:47:57;;;;;;;1999.90;999.90;;;;;;;8.94;100.00;94831.41;5085600;28;20245;-59
2023/03/23 04:50:27;;;;;;;1999.90;999.90;;;;;;;8.97;100.00;94835.25;5085369;28;20179;-59
2023/03/23 04:52:57;;;;;;;1999.90;999.90;;;;;;;9.02;100.00;94832.84;5085459;28;20170;-59
2023/03/23 04:55:23;;;;;;;1999.90;999.90;;;;;;;9.05;100.00;94832.03;5085357;28;20200;-57
2023/03/23 04:57:48;;;;;;;1999.90;999.90;;;;;;;9.08;100.00;94830.44;5085381;28;20173;-59
2023/03/23 05:00:16;;;;;;;1999.90;999.90;;;;;;;9.12;100.00;94840.13;5085572;28;20207;-59
2023/03/23 05:02:42;;;;;;;1999.90;999.90;;;;;;;9.17;100.00;94833.44;5085298;28;20174;-59
2023/03/23 05:05:14;;;;;;;1999.90;999.90;;;;;;;9.20;100.00;94838.88;5085450;28;20239;-60
2023/03/23 05:07:40;;;;;;;1999.90;999.90;;;;;;;9.23;100.00;94843.50;5085250;28;20211;-59
2023/03/23 05:10:08;;;;;;;1999.90;999.90;;;;;;;9.25;100.00;94846.56;5084990;28;20229;-59
2023/03/23 05:12:34;;;;;;;1999.90;999.90;;;;;;;9.28;100.00;94840.31;5084673;28;20173;-60
2023/03/23 05:14:59;;;;;;;1999.90;999.90;;;;;;;9.33;100.00;94847.28;5085412;28;20176;-58
2023/03/23 05:17:25;;;;;;;1999.90;999.90;;;;;;;9.35;100.00;94845.69;5085007;28;20170;-58
2023/03/23 05:19:51;;;;;;;1999.90;999.90;;;;;;;9.40;100.00;94836.28;5084886;28;20170;-58
2023/03/23 05:22:17;;;;;;;1999.90;999.90;;;;;;;9.42;100.00;94840.16;5085030;28;20178;-58
2023/03/23 05:24:42;;;;;;;1999.90;999.90;;;;;;;9.46;100.00;94843.59;5085350;28;20233;-58
2023/03/23 05:27:09;;;;;;;1999.90;999.90;;;;;;;9.50;100.00;94849.78;5084767;28;20397;-59
2023/03/23 05:29:36;;;;;;;1999.90;999.90;;;;;;;9.53;100.00;94857.13;5084236;28;20208;-58
2023/03/23 05:32:05;;;;;;;1999.90;999.90;;;;;;;9.59;100.00;94860.94;5084800;28;20199;-58
2023/03/23 05:34:32;;;;;;;1999.90;999.90;;;;;;;9.64;100.00;94867.88;5084601;28;20166;-59
2023/03/23 05:37:01;;;;;;;1999.90;999.90;;;;;;;9.64;100.00;94871.41;5084533;28;20199;-58
2023/03/23 05:39:27;;;;;;;1999.90;999.90;;;;;;;9.70;100.00;94867.00;5084954;28;20174;-57
2023/03/23 05:41:53;;;;;;;1999.90;999.90;;;;;;;9.78;100.00;94865.75;5084596;28;20186;-59
2023/03/23 05:44:19;;;;;;;1999.90;999.90;;;;;;;9.90;100.00;94875.31;5084897;28;20181;-58
2023/03/23 05:46:45;;;;;;;1999.90;999.90;;;;;;;10.01;100.00;94882.16;5084394;28;20180;-58
2023/03/23 05:49:10;;;;;;;1999.90;999.90;;;;;;;10.12;100.00;94876.56;5084302;28;20183;-58
2023/03/23 05:51:36;;;;;;;1999.90;999.90;;;;;;;10.20;100.00;94877.25;5084119;28;20210;-58
2023/03/23 05:54:01;;;;;;;1999.90;999.90;;;;;;;10.25;100.00;94857.69;5084060;28;20205;-58
2023/03/23 05:56:27;;;;;;;1999.90;999.90;;;;;;;10.22;100.00;94847.59;5084727;28;20247;-58
2023/03/23 05:58:54;;;;;;;1999.90;999.90;;;;;;;10.25;100.00;94842.09;5084660;28;20179;-59
2023/03/23 06:01:20;;;;;;;1999.90;999.90;;;;;;;10.23;100.00;94838.22;5084671;28;20177;-59
2023/03/23 06:03:45;;;;;;;1999.90;999.90;;;;;;;10.18;100.00;94830.50;5084096;28;20182;-59
2023/03/23 06:06:12;;;;;;;1999.90;999.90;;;;;;;10.10;100.00;94827.88;5084204;28;20250;-59
2023/03/23 06:08:38;;;;;;;1999.90;999.90;;;;;;;10.01;100.00;94822.16;5083467;28;20174;-59
2023/03/23 06:11:04;;;;;;;1999.90;999.90;;;;;;;9.94;100.00;94816.03;5084479;28;20219;-59
2023/03/23 06:13:30;;;;;;;1999.90;999.90;;;;;;;9.92;100.00;94821.13;5084092;28;20188;-59
2023/03/23 06:15:57;;;;;;;1999.90;999.90;;;;;;;9.92;100.00;94812.97;5083900;28;20197;-59
2023/03/23 06:18:23;;;;;;;1999.90;999.90;;;;;;;9.94;100.00;94810.56;5084389;28;20180;-59
2023/03/23 06:20:49;;;;;;;1999.90;999.90;;;;;;;9.96;100.00;94809.00;5083824;28;20178;-59
2023/03/23 06:23:15;;;;;;;1999.90;999.90;;;;;;;10.02;100.00;94828.41;5083684;28;20174;-60
2023/03/23 06:25:40;;;;;;;1999.90;999.90;;;;;;;10.04;100.00;94823.28;5083780;28;20180;-59
2023/03/23 06:28:06;;;;;;;1999.90;999.90;;;;;;;10.15;100.00;94829.38;5083497;28;20262;-58
2023/03/23 06:30:32;;;;;;;1999.90;999.90;;;;;;;10.30;100.00;94838.88;5083677;28;20201;-59
2023/03/23 06:32:57;;;;;;;1999.90;999.90;;;;;;;10.42;100.00;94841.03;5083401;28;20180;-59
2023/03/23 06:35:23;;;;;;;1999.90;999.90;;;;;;;10.55;100.00;94858.34;5083492;28;20175;-59
2023/03/23 06:37:48;;;;;;;1999.90;999.90;;;;;;;10.66;100.00;94860.88;5083580;28;20217;-59
2023/03/23 06:40:13;;;;;;;1999.90;999.90;;;;;;;10.76;100.00;94849.00;5083603;28;20220;-60
2023/03/23 06:42:39;;;;;;;1999.90;999.90;;;;;;;10.82;100.00;94844.63;5083639;28;20187;-58
2023/03/23 06:45:05;;;;;;;1999.90;999.90;;;;;;;10.90;100.00;94837.84;5083674;28;20176;-59
2023/03/23 06:47:30;;;;;;;1999.90;999.90;;;;;;;11.02;100.00;94838.00;5083751;28;20198;-59
2023/03/23 06:49:59;;;;;;;1999.90;999.90;;;;;;;11.09;100.00;94839.81;5083529;28;20182;-60
2023/03/23 06:52:26;;;;;;;1999.90;999.90;;;;;;;11.11;100.00;94831.97;5083683;28;20215;-59
2023/03/23 06:54:52;;;;;;;1999.90;999.90;;;;;;;11.08;100.00;94832.81;5083412;28;20275;-59
2023/03/23 06:57:18;;;;;;;1999.90;999.90;;;;;;;11.16;100.00;94823.28;5083406;28;20173;-59
2023/03/23 06:59:44;;;;;;;1999.90;999.90;;;;;;;11.20;100.00;94818.50;5083190;28;20177;-59
2023/03/23 07:02:11;;;;;;;1999.90;999.90;;;;;;;11.23;100.00;94812.22;5084025;28;20257;-58
2023/03/23 07:04:40;;;;;;;1999.90;999.90;;;;;;;11.26;100.00;94811.38;5083503;28;20184;-58
2023/03/23 07:07:08;;;;;;;1999.90;999.90;;;;;;;11.34;100.00;94797.16;5083853;28;20250;-58
2023/03/23 07:09:33;;;;;;;1999.90;999.90;;;;;;;11.43;100.00;94802.03;5083347;28;20169;-58
2023/03/23 07:11:59;;;;;;;1999.90;999.90;;;;;;;11.48;100.00;94798.81;5083558;28;20224;-58
2023/03/23 07:14:24;;;;;;;1999.90;999.90;;;;;;;11.47;100.00;94800.00;5083564;28;20173;-58
2023/03/23 07:16:50;;;;;;;1999.90;999.90;;;;;;;11.50;100.00;94804.59;5084009;28;20287;-58
2023/03/23 07:19:16;;;;;;;1999.90;999.90;;;;;;;11.63;100.00;94808.28;5083830;28;20243;-59
2023/03/23 07:21:41;;;;;;;1999.90;999.90;;;;;;;11.67;100.00;94819.91;5086164;28;20177;-58
2023/03/23 07:24:13;;;;;;;1999.90;999.90;;;;;;;11.84;100.00;94818.75;5087125;28;20172;-58
2023/03/23 07:26:41;;;;;;;1999.90;999.90;;;;;;;12.04;100.00;94830.41;5087111;28;20271;-59
2023/03/23 07:29:08;;;;;;;1999.90;999.90;;;;;;;12.30;100.00;94818.44;5087340;28;20228;-58
2023/03/23 07:31:34;;;;;;;1999.90;999.90;;;;;;;12.70;100.00;94823.28;5087472;28;20209;-59
2023/03/23 07:34:00;;;;;;;1999.90;999.90;;;;;;;13.22;100.00;94825.84;5086928;28;20177;-58
2023/03/23 07:36:26;;;;;;;1999.90;999.90;;;;;;;13.89;100.00;94810.19;5087073;28;20169;-59
2023/03/23 07:38:52;;;;;;;1999.90;999.90;;;;;;;14.25;100.00;94816.94;5087314;28;20251;-59
2023/03/23 07:41:17;;;;;;;1999.90;999.90;;;;;;;14.66;100.00;94815.97;5087201;28;20197;-59
2023/03/23 07:43:43;;;;;;;1999.90;999.90;;;;;;;15.11;100.00;94811.66;5087191;28;20173;-58
2023/03/23 07:46:08;;;;;;;1999.90;999.90;;;;;;;15.67;100.00;94815.13;5086731;28;20173;-59
2023/03/23 07:48:34;;;;;;;1999.90;999.90;;;;;;;16.07;100.00;94804.19;5087122;28;20184;-58
2023/03/23 07:50:59;;;;;;;1999.90;999.90;;;;;;;16.22;100.00;94805.91;5086473;28;20209;-58
2023/03/23 07:53:24;;;;;;;1999.90;999.90;;;;;;;16.24;100.00;94809.00;5086516;28;20174;-58
2023/03/23 07:55:51;;;;;;;1999.90;999.90;;;;;;;16.31;100.00;94807.94;5086683;28;20173;-58
2023/03/23 07:58:19;;;;;;;1999.90;999.90;;;;;;;16.70;100.00;94814.69;5086437;28;20182;-58
2023/03/23 08:00:46;;;;;;;1999.90;999.90;;;;;;;17.08;100.00;94815.81;5086339;28;20177;-58
2023/03/23 08:03:12;;;;;;;1999.90;999.90;;;;;;;16.83;100.00;94807.81;5086463;28;20177;-58
2023/03/23 08:05:38;;;;;;;1999.90;999.90;;;;;;;16.25;100.00;94807.03;5086870;28;20181;-58
2023/03/23 08:08:04;;;;;;;1999.90;999.90;;;;;;;16.05;100.00;94807.41;5086386;28;20177;-58
2023/03/23 08:10:30;;;;;;;1999.90;999.90;;;;;;;15.78;100.00;94810.00;5086262;28;20209;-58
2023/03/23 08:12:56;;;;;;;1999.90;999.90;;;;;;;15.68;100.00;94804.91;5086771;28;20199;-58
2023/03/23 08:15:23;;;;;;;1999.90;999.90;;;;;;;15.72;100.00;94806.31;5086037;28;20219;-58
2023/03/23 08:17:50;;;;;;;1999.90;999.90;;;;;;;15.82;100.00;94809.88;5086690;28;20173;-58
2023/03/23 08:20:17;;;;;;;1999.90;999.90;;;;;;;15.90;100.00;94814.69;5086857;28;20184;-61
2023/03/23 08:22:44;;;;;;;1999.90;999.90;;;;;;;16.02;100.00;94797.28;5086060;28;20176;-58
2023/03/23 08:25:12;;;;;;;1999.90;999.90;;;;;;;15.95;100.00;94805.03;5086070;28;20177;-58
2023/03/23 08:27:43;;;;;;;1999.90;999.90;;;;;;;16.09;100.00;94805.28;5086193;28;20176;-59
2023/03/23 08:30:10;;;;;;;1999.90;999.90;;;;;;;16.02;100.00;94808.31;5086453;28;20169;-59
2023/03/23 08:32:36;;;;;;;1999.90;999.90;;;;;;;16.10;100.00;94812.31;5085216;28;20205;-59
2023/03/23 08:35:02;;;;;;;1999.90;999.90;;;;;;;16.01;100.00;94812.28;5085898;28;20176;-59
2023/03/23 08:37:28;;;;;;;1999.90;999.90;;;;;;;15.74;100.00;94820.38;5086298;28;20169;-58
2023/03/23 08:39:55;;;;;;;1999.90;999.90;;;;;;;15.69;100.00;94826.47;5085845;28;20176;-58
2023/03/23 08:42:22;;;;;;;1999.90;999.90;;;;;;;15.61;100.00;94822.47;5085649;28;20181;-59
2023/03/23 08:44:48;;;;;;;1999.90;999.90;;;;;;;15.70;100.00;94807.97;5085680;28;20176;-59
2023/03/23 08:47:13;;;;;;;1999.90;999.90;;;;;;;15.73;100.00;94818.06;5085930;28;20169;-58
2023/03/23 08:49:38;;;;;;;1999.90;999.90;;;;;;;15.88;100.00;94819.84;5085561;28;20169;-59
2023/03/23 08:52:04;;;;;;;1999.90;999.90;;;;;;;15.91;100.00;94818.97;5085353;28;20243;-59
2023/03/23 08:54:31;;;;;;;1999.90;999.90;;;;;;;15.97;100.00;94814.41;5085801;28;20193;-59
2023/03/23 08:57:00;;;;;;;1999.90;999.90;;;;;;;16.03;100.00;94809.81;5085951;28;20173;-59
2023/03/23 08:59:26;;;;;;;1999.90;999.90;;;;;;;16.04;100.00;94816.88;5085770;28;20208;-59
2023/03/23 09:01:52;;;;;;;1999.90;999.90;;;;;;;16.32;100.00;94826.78;5085396;28;20173;-59
2023/03/23 09:04:17;;;;;;;1999.90;999.90;;;;;;;16.63;100.00;94834.25;5085329;28;20192;-60
2023/03/23 09:06:44;;;;;;;1999.90;999.90;;;;;;;16.80;100.00;94836.31;5085308;28;20169;-59
2023/03/23 09:09:09;;;;;;;1999.90;999.90;;;;;;;17.18;100.00;94841.41;5084965;28;20197;-58
2023/03/23 09:11:35;;;;;;;1999.90;999.90;;;;;;;17.40;100.00;94850.31;5085036;28;20247;-59
2023/03/23 09:14:03;;;;;;;1999.90;999.90;;;;;;;17.62;100.00;94850.94;5085094;28;20176;-59
2023/03/23 09:16:29;;;;;;;1999.90;999.90;;;;;;;17.82;100.00;94845.72;5084977;28;20166;-59
2023/03/23 09:18:56;;;;;;;1999.90;999.90;;;;;;;17.98;100.00;94850.91;5085183;28;20170;-59
2023/03/23 09:21:23;;;;;;;1999.90;999.90;;;;;;;17.86;100.00;94858.16;5084938;28;20175;-59
2023/03/23 09:23:48;;;;;;;1999.90;999.90;;;;;;;17.92;100.00;94861.06;5084699;28;20173;-58
2023/03/23 09:26:14;;;;;;;1999.90;999.90;;;;;;;17.90;100.00;94863.50;5085078;28;20195;-58
2023/03/23 09:28:39;;;;;;;1999.90;999.90;;;;;;;18.04;99.72;94882.22;5085120;28;20216;-58
2023/03/23 09:31:05;;;;;;;1999.90;999.90;;;;;;;18.13;94.68;94880.19;5084707;28;20253;-59
2023/03/23 09:33:33;;;;;;;1999.90;999.90;;;;;;;18.20;92.35;94877.09;5085240;28;20244;-58
2023/03/23 09:35:59;;;;;;;1999.90;999.90;;;;;;;18.19;89.13;94881.13;5084707;28;20234;-58
2023/03/23 09:38:24;;;;;;;1999.90;999.90;;;;;;;18.39;88.55;94880.63;5084625;28;20169;-57
2023/03/23 09:41:28;;;;;;;1999.90;999.90;;;;;;;18.46;87.51;94883.81;5084724;28;20169;-57
2023/03/23 09:44:19;;;;;;;1999.90;999.90;;;;;;;18.62;85.20;94883.44;5084139;28;20177;-58
2023/03/23 09:47:02;;;;;;;1999.90;999.90;;;;;;;18.81;82.56;94882.16;5084710;28;20234;-58
2023/03/23 09:49:38;;;;;;;1999.90;999.90;;;;;;;18.90;81.67;94881.31;5085167;28;20165;-59
2023/03/23 09:52:18;;;;;;;1999.90;999.90;;;;;;;18.95;83.52;94880.69;5084927;28;20200;-59
2023/03/23 09:54:50;;;;;;;1999.90;999.90;;;;;;;19.14;80.99;94871.03;5084431;28;20217;-59
2023/03/23 09:57:32;;;;;;;1999.90;999.90;;;;;;;19.25;79.14;94874.84;5084736;28;20176;-59
2023/03/23 10:00:09;;;;;;;1999.90;999.90;;;;;;;19.75;76.52;94878.63;5084288;28;20169;-59
2023/03/23 10:03:02;;;;;;;1999.90;999.90;;;;;;;20.68;72.95;94868.41;5084691;28;20239;-59
2023/03/23 10:05:35;;;;;;;1999.90;999.90;;;;;;;21.16;69.07;94872.44;5084612;28;20199;-59
2023/03/23 10:08:03;;;;;;;1999.90;999.90;;;;;;;21.24;66.93;94870.78;5084049;28;20189;-59
2023/03/23 10:10:45;;;;;;;1999.90;999.90;;;;;;;21.58;64.43;94864.41;5084499;28;20173;-59
2023/03/23 10:13:33;;;;;;;1999.90;999.90;;;;;;;21.56;64.16;94874.50;5084562;28;20240;-57
2023/03/23 10:16:00;;;;;;;1999.90;999.90;;;;;;;21.71;62.22;94878.72;5083764;28;20181;-59
2023/03/23 10:18:36;;;;;;;1999.90;999.90;;;;;;;20.98;64.96;94880.25;5083880;28;20173;-59
2023/03/23 10:21:03;;;;;;;1999.90;999.90;;;;;;;20.93;65.11;94878.94;5084523;28;20173;-59
2023/03/23 10:23:42;;;;;;;1999.90;999.90;;;;;;;20.65;66.19;94885.28;5084377;28;20197;-57
2023/03/23 10:26:32;;;;;;;1999.90;999.90;;;;;;;20.52;69.51;94877.25;5083996;28;20240;-57
2023/03/23 10:29:13;;;;;;;1999.90;999.90;;;;;;;20.23;67.68;94877.25;5083575;28;20227;-59
2023/03/23 10:31:52;;;;;;;1999.90;999.90;;;;;;;20.12;68.26;94888.16;5084091;28;20220;-58
2023/03/23 10:34:21;;;;;;;1999.90;999.90;;;;;;;19.94;69.41;94893.84;5084337;28;20173;-59
2023/03/23 10:37:09;;;;;;;1999.90;999.90;;;;;;;19.88;71.94;94890.19;5083565;28;20177;-58
2023/03/23 10:39:45;;;;;;;1999.90;999.90;;;;;;;19.58;73.92;94898.91;5084101;28;20178;-61
2023/03/23 10:42:11;;;;;;;1999.90;999.90;;;;;;;19.58;75.03;94891.38;5084111;28;20238;-58
2023/03/23 10:44:37;;;;;;;1999.90;999.90;;;;;;;19.46;75.78;94886.84;5084087;28;20177;-59
2023/03/23 10:47:08;;;;;;;1999.90;999.90;;;;;;;19.57;74.99;94892.63;5083605;28;20185;-58
2023/03/23 10:50:01;;;;;;;1999.90;999.90;;;;;;;19.51;74.58;94886.19;5084058;28;20173;-58
2023/03/23 10:52:32;;;;;;;1999.90;999.90;;;;;;;19.52;75.08;94884.94;5075827;28;20220;-58
2023/03/23 10:55:10;;;;;;;1999.90;999.90;;;;;;;19.57;75.73;94876.00;5083871;28;20200;-58
2023/03/23 10:57:39;;;;;;;1999.90;999.90;;;;;;;19.64;74.21;94886.72;5088031;28;20164;-59
2023/03/23 11:00:17;;;;;;;1999.90;999.90;;;;;;;19.53;74.74;94875.41;5087630;28;20203;-59